Riverdale, MD

12:34 PM EST on March 04, 2015 (GMT -0500)
College Park | Change Station
CLOSE
Current Station
Airport
Location: College Park,
Elevation: 49 ft
Nearby Weather Stations
Active Advisory: Winter Storm Warning

Elev 49 ft 38.98 °N, 76.92 °W | Updated 14 minutes ago

Overcast
Overcast
45 °F
Feels Like 45 °F
N
0
Wind Variable Wind from North

Today
High -- | Low -- °F
--% Chance of Precip.
Yesterday
High -- | Low -- °F
Precip. -- in
6:36 AM 6:03 PM
Waxing Gibbous, 99% visible
Pressure 29.90 in
Visibility 7.0 miles
Clouds Overcast 9000 ft
Dew Point 43 °F
Humidity 93%
Rainfall 0.00 in
Snow Depth Not available.
UV 2 out of 12
Pollen .70 out of 12
Air Quality Not available.
Flu Activity Not available.
METAR KCGS 041720Z AUTO 00000KT 7SM OVC090 07/06 A2990 RMK AO1

More Conditions Fewer Conditions

Pressure 29.90 in
Visibility 7.0 miles
Clouds Overcast 9000 ft
Dew Point 43 °F
Humidity 93%
Rainfall 0.00 in
Snow Depth Not available.
UV 2 out of 12
Pollen .70 out of 12
Air Quality Not available.
Flu Activity Not available.
METAR KCGS 041720Z AUTO 00000KT 7SM OVC090 07/06 A2990 RMK AO1

More Conditions Fewer Conditions

10-Day Weather Forecast

Almanac

Astronomy

Mar. 04, 2015 Rise Set
Actual Time
Civil Twilight
Nautical Twilight
Astronomical Twilight
Moon
Length of Visible Light
Length of Day
Tomorrow will be .
, % of the Moon is Illuminated

Today's Extremes

State Highs State Lows

Community

WunderPhotos

Upload Photos

1,802,514 photos uploaded!

WunderBlogs® & News

Nearby

Air Quality

  Air Quality AQ Index Pollutant
Not available.

Snow Depth

Station Depth Elevation

Earthquake Activity

City Distance Mag. Time & Date
Minimum magnitude displayed is 2.5.

Coastal Water Temperatures

Place Temperature

Nearby Weather Stations

Winter Storm Warning
Statement as of 10:12 AM EST on March 04, 2015

... Winter Storm Warning remains in effect from midnight tonight
to 9 PM EST Thursday...

* precipitation types... wintry mix... then all snow... heavy at
times.

* Accumulations... snow accumulation of 4 to 8 inches... along
with around a trace of ice.

* Timing... rain changes to wintry mix around midnight then all
snow Thursday. Snow heaviest Thursday late morning into the
afternoon.

* Temperatures... in the upper 20s.

* Winds... north 10 to 15 mph with gusts up to 25 mph.

* Impacts... roads will be snow covered... visibilities will drop
to around a quarter-mile at times... making travel dangerous.


Precautionary/preparedness actions...

A Winter Storm Warning for heavy snow means severe winter weather
conditions are expected or occurring. Significant amounts of snow
are forecast that will make travel dangerous. Only travel in an
emergency. If you must travel... keep an extra flashlight...
food... and water in your vehicle in case of an emergency.